Time;durP1;ratioP1;P1;durP2;ratioP2;P2;SDS_P1;SDS_P2;PMS_P1;PMS_P2;Temp;Humidity;BMP_temperature;BMP_pressure;BME280_temperature;BME280_humidity;BME280_pressure;Samples;Min_cycle;Max_cycle;Signal;HPM_P1;HPM_P2
2022/09/23 00:00:05;;;;;;;3.90;2.30;;;4.30;99.90;;;;;;5068216;23;20551;-74
2022/09/23 00:02:05;;;;;;;5.67;1.93;;;4.30;99.90;;;;;;5068236;23;20431;-74
2022/09/23 00:04:06;;;;;;;2.70;2.37;;;4.20;99.90;;;;;;5042335;23;20410;-75
2022/09/23 00:06:09;;;;;;;3.17;2.00;;;4.20;99.90;;;;;;5068059;23;20165;-74
2022/09/23 00:08:11;;;;;;;3.60;2.40;;;4.20;99.90;;;;;;5042203;23;20491;-74
2022/09/23 00:10:11;;;;;;;2.63;1.93;;;4.20;99.90;;;;;;5065673;23;20413;-74
2022/09/23 00:12:12;;;;;;;3.13;2.10;;;4.20;99.90;;;;;;5042201;23;20427;-74
2022/09/23 00:14:13;;;;;;;3.73;2.23;;;4.20;99.90;;;;;;5068524;23;20185;-74
2022/09/23 00:16:17;;;;;;;3.37;2.17;;;4.20;99.90;;;;;;5042306;23;20205;-74
2022/09/23 00:18:19;;;;;;;3.50;2.47;;;4.20;99.90;;;;;;5067881;23;20162;-75
2022/09/23 00:20:20;;;;;;;4.07;2.63;;;4.10;99.90;;;;;;5042001;23;20399;-74
2022/09/23 00:22:21;;;;;;;2.77;2.10;;;4.10;99.90;;;;;;5067962;23;20414;-74
2022/09/23 00:24:22;;;;;;;3.83;2.50;;;4.10;99.90;;;;;;5068117;23;20206;-76
2022/09/23 00:26:23;;;;;;;3.83;2.13;;;4.10;99.90;;;;;;5068215;23;20192;-74
2022/09/23 00:28:23;;;;;;;4.57;2.30;;;4.10;99.90;;;;;;5068032;23;20944;-74
2022/09/23 00:30:24;;;;;;;2.87;2.07;;;4.10;99.90;;;;;;5067402;23;20167;-74
2022/09/23 00:32:25;;;;;;;3.23;2.10;;;4.10;99.90;;;;;;5068237;23;20267;-75
2022/09/23 00:34:26;;;;;;;2.83;2.30;;;4.10;99.90;;;;;;5042237;23;20184;-75
2022/09/23 00:36:28;;;;;;;2.80;2.40;;;4.00;99.90;;;;;;5043693;23;20184;-73
2022/09/23 00:38:29;;;;;;;3.20;2.13;;;4.00;99.90;;;;;;5043640;23;20188;-74
2022/09/23 00:40:30;;;;;;;4.00;2.53;;;4.00;99.90;;;;;;5043114;23;20404;-73
2022/09/23 00:42:30;;;;;;;2.37;2.00;;;4.00;99.90;;;;;;5043866;23;20196;-73
2022/09/23 00:44:44;;;;;;;3.00;2.20;;;4.00;99.90;;;;;;5043604;23;20161;-73
2022/09/23 00:46:45;;;;;;;3.57;2.53;;;4.00;99.90;;;;;;5041990;23;20250;-73
2022/09/23 00:48:49;;;;;;;2.07;1.80;;;3.90;99.90;;;;;;5043621;23;20396;-74
2022/09/23 00:50:53;;;;;;;3.23;2.30;;;3.80;99.90;;;;;;5043167;23;20252;-75
2022/09/23 00:52:56;;;;;;;3.20;2.20;;;3.80;99.90;;;;;;5043768;23;20575;-74
2022/09/23 00:55:01;;;;;;;3.20;2.50;;;3.90;99.90;;;;;;5043734;23;20400;-74
2022/09/23 00:57:04;;;;;;;4.40;2.87;;;3.90;99.90;;;;;;5042130;23;20444;-74
2022/09/23 00:59:08;;;;;;;4.30;2.50;;;3.90;99.90;;;;;;5043776;23;20858;-74
2022/09/23 01:01:11;;;;;;;3.43;2.10;;;3.90;99.90;;;;;;5042951;23;20389;-74
2022/09/23 01:03:13;;;;;;;2.57;1.90;;;3.90;99.90;;;;;;5043626;23;20397;-74
2022/09/23 01:05:14;;;;;;;2.97;2.17;;;3.90;99.90;;;;;;5042592;23;20404;-74
2022/09/23 01:07:14;;;;;;;3.17;2.60;;;3.80;99.90;;;;;;5043995;23;20448;-74
2022/09/23 01:09:16;;;;;;;3.80;2.20;;;3.80;99.90;;;;;;5043888;23;20483;-74
2022/09/23 01:11:23;;;;;;;4.47;2.10;;;3.80;99.90;;;;;;5044434;23;20701;-74
2022/09/23 01:13:48;;;;;;;3.90;2.40;;;3.80;99.90;;;;;;5044367;23;20375;-73
2022/09/23 01:15:56;;;;;;;3.87;2.40;;;3.80;99.90;;;;;;5044158;23;20424;-73
2022/09/23 01:18:15;;;;;;;4.70;2.33;;;3.80;99.90;;;;;;5044198;23;20403;-75
2022/09/23 01:20:53;;;;;;;3.53;2.50;;;3.80;99.90;;;;;;5043278;23;20403;-74
2022/09/23 01:23:25;;;;;;;3.20;2.70;;;3.80;99.90;;;;;;5042348;23;20995;-73
2022/09/23 01:25:26;;;;;;;2.50;2.23;;;3.90;99.90;;;;;;5044115;23;20778;-74
2022/09/23 01:27:44;;;;;;;2.67;2.30;;;3.80;99.90;;;;;;5044250;23;20399;-74
2022/09/23 01:30:03;;;;;;;3.63;2.57;;;3.80;99.90;;;;;;5042372;23;20550;-74
2022/09/23 01:32:24;;;;;;;3.70;2.53;;;3.80;99.90;;;;;;5043729;23;20415;-74
2022/09/23 01:34:34;;;;;;;2.30;2.10;;;3.70;99.90;;;;;;5067889;23;20413;-74
2022/09/23 01:36:41;;;;;;;3.37;2.67;;;3.70;99.90;;;;;;5067979;23;20423;-73
2022/09/23 01:39:00;;;;;;;3.00;2.30;;;3.70;99.90;;;;;;5042149;23;20456;-74
2022/09/23 01:41:38;;;;;;;3.13;2.50;;;3.70;99.90;;;;;;5041072;23;20417;-74
2022/09/23 01:43:56;;;;;;;4.93;2.50;;;3.70;99.90;;;;;;5067672;23;20378;-75
2022/09/23 01:45:59;;;;;;;3.00;2.37;;;3.70;99.90;;;;;;5067868;23;20410;-74
2022/09/23 01:48:17;;;;;;;2.70;2.30;;;3.70;99.90;;;;;;5067523;23;20401;-74
2022/09/23 01:52:46;;;;;;;2.97;2.33;;;3.70;99.90;;;;;;5067780;23;20465;-74
2022/09/23 01:55:04;;;;;;;4.03;2.60;;;3.60;99.90;;;;;;5041669;23;20395;-75
2022/09/23 01:57:26;;;;;;;2.33;2.13;;;3.70;99.90;;;;;;5067147;23;20425;-73
2022/09/23 01:59:44;;;;;;;4.57;2.80;;;3.70;99.90;;;;;;5067856;23;20387;-75
2022/09/23 02:02:09;;;;;;;5.00;2.83;;;3.70;99.90;;;;;;5066939;23;20956;-74
2022/09/23 02:04:24;;;;;;;2.90;2.30;;;3.70;99.90;;;;;;5041024;23;20523;-75
2022/09/23 02:06:28;;;;;;;3.17;2.37;;;3.70;99.90;;;;;;5067192;23;20386;-74
2022/09/23 02:08:40;;;;;;;2.93;2.40;;;3.70;99.90;;;;;;5067202;23;20402;-75
2022/09/23 02:10:50;;;;;;;3.00;2.50;;;3.70;99.90;;;;;;5066528;23;20796;-74
2022/09/23 02:12:58;;;;;;;3.17;2.30;;;3.70;99.90;;;;;;5067189;23;20899;-74
2022/09/23 02:15:04;;;;;;;3.60;2.60;;;3.70;99.90;;;;;;5067260;23;20378;-74
2022/09/23 02:17:09;;;;;;;2.83;2.53;;;3.70;99.90;;;;;;5067133;23;20426;-74
2022/09/23 02:19:16;;;;;;;2.77;2.33;;;3.70;99.90;;;;;;5067275;23;20394;-74
2022/09/23 02:21:20;;;;;;;6.27;2.50;;;3.70;99.90;;;;;;5066251;23;20415;-75
2022/09/23 02:23:34;;;;;;;4.13;2.57;;;3.70;99.90;;;;;;5067052;23;20825;-74
2022/09/23 02:25:50;;;;;;;2.90;2.30;;;3.70;99.90;;;;;;5066827;23;20382;-74
2022/09/23 02:28:37;;;;;;;2.70;2.40;;;3.70;99.90;;;;;;5062109;23;20372;-74
2022/09/23 02:30:56;;;;;;;3.67;3.03;;;3.70;99.90;;;;;;5065458;23;20409;-74
2022/09/23 02:33:19;;;;;;;3.47;2.53;;;3.70;99.90;;;;;;5041708;23;20835;-74
2022/09/23 02:35:31;;;;;;;3.37;2.43;;;3.70;99.90;;;;;;5042694;23;20380;-74
2022/09/23 02:37:42;;;;;;;3.27;2.40;;;3.70;99.90;;;;;;5043011;23;20372;-74
2022/09/23 02:40:00;;;;;;;6.10;2.27;;;3.60;99.90;;;;;;5042840;23;20363;-75
2022/09/23 02:42:08;;;;;;;4.60;2.53;;;3.60;99.90;;;;;;5041715;23;20403;-74
2022/09/23 02:44:13;;;;;;;2.57;2.37;;;3.60;99.90;;;;;;5040324;23;20523;-74
2022/09/23 02:46:15;;;;;;;2.63;2.40;;;3.60;99.90;;;;;;5042987;23;20410;-75
2022/09/23 02:48:21;;;;;;;4.63;2.80;;;3.60;99.90;;;;;;5042879;23;20387;-75
2022/09/23 02:50:22;;;;;;;4.37;2.30;;;3.60;99.90;;;;;;5042216;23;20383;-75
2022/09/23 02:52:23;;;;;;;2.90;2.60;;;3.60;99.90;;;;;;5042846;23;20415;-73
2022/09/23 02:54:27;;;;;;;3.50;2.47;;;3.60;99.90;;;;;;5042992;23;20163;-74
2022/09/23 02:56:27;;;;;;;2.50;2.30;;;3.60;99.90;;;;;;5042721;23;20742;-74
2022/09/23 02:58:28;;;;;;;2.63;2.40;;;3.60;99.90;;;;;;5043075;23;20395;-74
2022/09/23 03:00:52;;;;;;;3.13;2.30;;;3.60;99.90;;;;;;5042399;23;20677;-74
2022/09/23 03:03:14;;;;;;;3.23;2.53;;;3.60;99.90;;;;;;5044933;23;20413;-74
2022/09/23 03:05:32;;;;;;;3.87;2.50;;;3.60;99.90;;;;;;5043455;23;20393;-74
2022/09/23 03:07:48;;;;;;;3.20;2.50;;;3.60;99.90;;;;;;5043041;23;20387;-74
2022/09/23 03:10:00;;;;;;;2.53;2.33;;;3.60;99.90;;;;;;5046069;23;20435;-73
2022/09/23 03:12:34;;;;;;;3.43;2.60;;;3.60;99.90;;;;;;5045350;23;20408;-74
2022/09/23 03:15:04;;;;;;;2.53;2.20;;;3.60;99.90;;;;;;5037672;23;21081;-74
2022/09/23 03:17:13;;;;;;;3.13;2.60;;;3.60;99.90;;;;;;5046268;23;20421;-75
2022/09/23 03:19:34;;;;;;;3.23;2.63;;;3.60;99.90;;;;;;5044101;23;20397;-75
2022/09/23 03:21:43;;;;;;;3.87;2.73;;;3.60;99.90;;;;;;5044433;23;20409;-75
2022/09/23 03:23:46;;;;;;;3.07;2.20;;;3.60;99.90;;;;;;5045218;23;20489;-75
2022/09/23 03:25:51;;;;;;;2.57;2.37;;;3.70;99.90;;;;;;5045317;23;20395;-75
2022/09/23 03:27:56;;;;;;;3.10;2.50;;;3.70;99.90;;;;;;5044767;23;20392;-75
2022/09/23 03:29:58;;;;;;;2.67;2.47;;;3.60;99.90;;;;;;5043351;23;20399;-76
2022/09/23 03:31:58;;;;;;;3.00;2.57;;;3.70;99.90;;;;;;5042538;23;20434;-76
2022/09/23 03:34:02;;;;;;;3.93;2.57;;;3.60;99.90;;;;;;5063472;23;20397;-75
2022/09/23 03:38:33;;;;;;;3.47;2.40;;;3.60;99.90;;;;;;5069178;23;20422;-75
2022/09/23 03:40:41;;;;;;;2.73;2.30;;;3.60;99.90;;;;;;5068773;23;20417;-75
2022/09/23 03:42:42;;;;;;;5.23;2.50;;;3.50;99.90;;;;;;5043206;23;21030;-75
2022/09/23 03:44:47;;;;;;;3.07;2.50;;;3.60;99.90;;;;;;5069170;23;20461;-75
2022/09/23 03:46:48;;;;;;;3.13;2.53;;;3.60;99.90;;;;;;5043758;23;20155;-75
2022/09/23 03:48:49;;;;;;;4.80;2.60;;;3.60;99.90;;;;;;5069628;23;20448;-75
2022/09/23 03:50:49;;;;;;;4.10;2.93;;;3.60;99.90;;;;;;5043091;23;20679;-75
2022/09/23 03:52:50;;;;;;;3.50;2.80;;;3.60;99.90;;;;;;5043871;23;20191;-75
2022/09/23 03:54:51;;;;;;;3.30;2.70;;;3.50;99.90;;;;;;5068634;23;20163;-75
2022/09/23 03:56:56;;;;;;;4.50;3.40;;;3.50;99.90;;;;;;5068157;23;20195;-75
2022/09/23 03:58:57;;;;;;;5.43;3.33;;;3.60;99.90;;;;;;5068742;23;20410;-75
2022/09/23 04:00:57;;;;;;;4.63;2.97;;;3.60;99.90;;;;;;5067530;23;20494;-75
2022/09/23 04:02:58;;;;;;;3.57;2.67;;;3.60;99.90;;;;;;5068952;23;20163;-75
2022/09/23 04:04:58;;;;;;;3.70;3.17;;;3.70;99.90;;;;;;5068427;23;20149;-75
2022/09/23 04:06:59;;;;;;;5.50;4.30;;;3.70;99.90;;;;;;5068330;23;20171;-75
2022/09/23 04:09:00;;;;;;;33.77;18.80;;;3.70;99.90;;;;;;5042680;23;20179;-75
2022/09/23 04:11:02;;;;;;;56.90;31.33;;;3.70;99.90;;;;;;5067676;23;20626;-75
2022/09/23 04:13:03;;;;;;;86.17;43.03;;;3.70;99.90;;;;;;5068211;23;20169;-75
2022/09/23 04:15:04;;;;;;;117.47;57.50;;;3.70;99.90;;;;;;5042634;23;20409;-75
2022/09/23 04:17:04;;;;;;;81.07;42.80;;;3.70;99.90;;;;;;5067987;23;20184;-74
2022/09/23 04:19:05;;;;;;;49.00;26.07;;;3.70;99.90;;;;;;5068662;23;20402;-74
2022/09/23 04:21:05;;;;;;;48.70;25.97;;;3.70;99.90;;;;;;5065902;23;20237;-75
2022/09/23 04:23:06;;;;;;;23.13;13.70;;;3.70;99.90;;;;;;5066955;23;20161;-75
2022/09/23 04:25:07;;;;;;;19.70;11.27;;;3.70;99.90;;;;;;5066869;23;20166;-75
2022/09/23 04:27:08;;;;;;;15.23;8.40;;;3.70;99.90;;;;;;5067420;23;20164;-74
2022/09/23 04:29:09;;;;;;;10.33;7.10;;;3.70;99.90;;;;;;5041256;23;20658;-75
2022/09/23 04:31:10;;;;;;;6.53;4.20;;;3.80;99.90;;;;;;5066261;23;20253;-75
2022/09/23 04:33:12;;;;;;;7.70;4.40;;;3.80;99.90;;;;;;5066639;23;20414;-75
2022/09/23 04:35:13;;;;;;;9.23;4.50;;;3.80;99.90;;;;;;5041065;23;20597;-75
2022/09/23 04:37:13;;;;;;;7.07;4.53;;;3.90;99.90;;;;;;5066691;23;20509;-75
2022/09/23 04:39:15;;;;;;;5.20;3.47;;;4.00;99.90;;;;;;5040990;23;20175;-75
2022/09/23 04:41:16;;;;;;;5.30;3.70;;;4.10;99.90;;;;;;5066081;23;20183;-75
2022/09/23 04:43:17;;;;;;;5.00;3.47;;;4.10;99.90;;;;;;5066334;23;20439;-75
2022/09/23 04:45:18;;;;;;;4.30;3.00;;;4.20;99.90;;;;;;5066814;23;20915;-75
2022/09/23 04:47:18;;;;;;;5.37;3.20;;;4.20;99.90;;;;;;5067487;23;20164;-76
2022/09/23 04:49:19;;;;;;;6.17;3.87;;;4.30;99.90;;;;;;5067534;23;20158;-75
2022/09/23 04:51:21;;;;;;;4.00;3.40;;;4.30;99.90;;;;;;5040438;23;20199;-75
2022/09/23 04:53:22;;;;;;;5.37;4.17;;;4.40;99.90;;;;;;5067495;23;20171;-74
2022/09/23 04:55:22;;;;;;;9.70;5.17;;;4.50;99.90;;;;;;5066982;23;20402;-75
2022/09/23 04:57:23;;;;;;;6.67;4.30;;;4.60;99.90;;;;;;5066976;23;20212;-75
2022/09/23 04:59:24;;;;;;;3.33;2.13;;;4.70;99.90;;;;;;5040982;23;20177;-75
2022/09/23 05:01:27;;;;;;;4.63;2.53;;;4.80;99.90;;;;;;5069098;23;20655;-76
2022/09/23 05:03:29;;;;;;;3.00;2.23;;;4.80;99.90;;;;;;5044009;23;20229;-74
2022/09/23 05:05:29;;;;;;;4.20;2.30;;;4.70;99.90;;;;;;5067200;23;20463;-75
2022/09/23 05:07:30;;;;;;;4.27;2.60;;;4.70;99.90;;;;;;5067708;23;20779;-75
2022/09/23 05:09:30;;;;;;;4.53;3.23;;;4.80;99.90;;;;;;5067144;23;20233;-75
2022/09/23 05:11:31;;;;;;;9.80;4.40;;;4.80;99.90;;;;;;5066219;23;20184;-75
2022/09/23 05:13:32;;;;;;;7.63;4.60;;;4.70;99.90;;;;;;5067064;23;20166;-75
2022/09/23 05:15:33;;;;;;;8.23;5.60;;;4.60;99.90;;;;;;5066991;23;20626;-75
2022/09/23 05:17:36;;;;;;;6.33;4.20;;;4.60;99.90;;;;;;5040946;23;20174;-76
2022/09/23 05:19:36;;;;;;;4.43;3.33;;;4.60;99.90;;;;;;5067171;23;20396;-75
2022/09/23 05:21:37;;;;;;;3.97;3.47;;;4.70;99.90;;;;;;5067315;23;20700;-75
2022/09/23 05:23:39;;;;;;;5.00;2.77;;;4.60;99.90;;;;;;5068555;23;20164;-74
2022/09/23 05:25:41;;;;;;;2.47;2.27;;;4.60;99.90;;;;;;5046367;23;20169;-74
2022/09/23 05:27:41;;;;;;;2.77;2.30;;;4.70;99.90;;;;;;5071296;23;20397;-75
2022/09/23 05:29:42;;;;;;;4.23;2.57;;;4.70;99.90;;;;;;5070247;23;20712;-75
2022/09/23 05:31:43;;;;;;;4.27;2.50;;;4.80;99.90;;;;;;5045162;23;20186;-75
2022/09/23 05:33:45;;;;;;;3.67;2.70;;;4.90;99.90;;;;;;5045852;23;20180;-75
2022/09/23 05:35:47;;;;;;;3.93;2.80;;;4.90;99.90;;;;;;5048173;23;20163;-74
2022/09/23 05:37:47;;;;;;;3.13;2.70;;;5.00;99.90;;;;;;5047281;23;20414;-74
2022/09/23 05:39:48;;;;;;;5.93;2.80;;;5.00;99.90;;;;;;5047881;23;20387;-75
2022/09/23 05:41:48;;;;;;;6.03;3.10;;;5.00;99.90;;;;;;5045074;23;20178;-76
2022/09/23 05:43:50;;;;;;;4.97;3.40;;;5.10;99.90;;;;;;5046867;23;20230;-75
2022/09/23 05:45:59;;;;;;;4.30;2.73;;;5.30;99.90;;;;;;5044551;23;20170;-74
2022/09/23 05:48:00;;;;;;;3.83;2.60;;;5.30;99.90;;;;;;5043828;23;20378;-74
2022/09/23 05:50:01;;;;;;;7.30;3.80;;;5.40;99.90;;;;;;5043624;23;20796;-75
2022/09/23 05:52:01;;;;;;;3.60;2.73;;;5.50;99.90;;;;;;5043333;23;20186;-75
2022/09/23 05:54:03;;;;;;;7.10;4.50;;;5.50;99.90;;;;;;5042146;23;20289;-75
2022/09/23 05:56:04;;;;;;;7.07;5.13;;;5.60;99.90;;;;;;5042258;23;20212;-75
2022/09/23 05:58:05;;;;;;;13.73;5.37;;;5.60;99.90;;;;;;5042000;23;20406;-75
2022/09/23 06:00:06;;;;;;;5.60;3.83;;;5.70;99.90;;;;;;5041837;23;20407;-75
2022/09/23 06:02:08;;;;;;;4.83;3.77;;;5.90;99.90;;;;;;5041480;23;20190;-74
2022/09/23 06:04:11;;;;;;;6.43;3.63;;;6.00;99.90;;;;;;5041750;23;20470;-75
2022/09/23 06:06:13;;;;;;;8.37;5.00;;;6.10;99.90;;;;;;5041829;23;20398;-75
2022/09/23 06:08:14;;;;;;;6.93;5.10;;;6.20;99.90;;;;;;5041870;23;20473;-75
2022/09/23 06:10:15;;;;;;;8.83;4.93;;;6.40;99.90;;;;;;5039468;23;20857;-75
2022/09/23 06:12:15;;;;;;;5.77;3.90;;;6.50;99.90;;;;;;5041627;23;20686;-75
2022/09/23 06:14:16;;;;;;;4.60;3.60;;;6.50;99.90;;;;;;5041775;23;20194;-75
2022/09/23 06:16:16;;;;;;;5.60;3.70;;;6.70;99.90;;;;;;5041658;23;20190;-74
2022/09/23 06:18:17;;;;;;;4.87;3.67;;;6.70;99.90;;;;;;5041891;23;20190;-75
2022/09/23 06:20:17;;;;;;;4.17;3.70;;;6.70;99.90;;;;;;5039193;23;20174;-74
2022/09/23 06:22:18;;;;;;;7.87;3.97;;;6.80;99.90;;;;;;5041759;23;20186;-73
2022/09/23 06:24:18;;;;;;;12.83;6.43;;;7.00;99.90;;;;;;5041908;23;20218;-73
2022/09/23 06:26:19;;;;;;;6.43;4.77;;;7.10;99.90;;;;;;5041570;23;20767;-74
2022/09/23 06:28:19;;;;;;;8.07;4.37;;;7.20;99.90;;;;;;5042020;23;20200;-73
2022/09/23 06:30:25;;;;;;;5.40;4.03;;;7.40;99.90;;;;;;5039488;23;20171;-74
2022/09/23 06:32:25;;;;;;;5.20;3.40;;;7.40;99.90;;;;;;5040169;23;20195;-75
2022/09/23 06:34:26;;;;;;;5.70;3.80;;;7.50;99.90;;;;;;5065912;23;20390;-74
2022/09/23 06:36:27;;;;;;;5.33;3.50;;;7.60;99.90;;;;;;5066056;23;20214;-75
2022/09/23 06:38:28;;;;;;;5.47;4.00;;;7.80;99.90;;;;;;5066110;23;20162;-74
2022/09/23 06:40:30;;;;;;;5.07;3.57;;;7.90;99.90;;;;;;5065494;23;20394;-74
2022/09/23 06:42:30;;;;;;;3.97;2.97;;;8.00;99.90;;;;;;5064204;23;20437;-74
2022/09/23 06:44:31;;;;;;;3.47;3.17;;;8.20;99.90;;;;;;5039944;23;20448;-75
2022/09/23 06:46:31;;;;;;;3.60;3.07;;;8.30;99.90;;;;;;5039785;23;20180;-75
2022/09/23 06:48:35;;;;;;;6.10;3.67;;;8.40;99.90;;;;;;5065713;23;20168;-75
2022/09/23 06:50:36;;;;;;;3.83;2.83;;;8.60;99.90;;;;;;5065205;23;20166;-75
2022/09/23 06:52:37;;;;;;;3.90;3.27;;;8.70;99.90;;;;;;5066121;23;20185;-74
2022/09/23 06:54:37;;;;;;;7.80;3.07;;;8.90;99.90;;;;;;5065991;23;20162;-75
2022/09/23 06:56:38;;;;;;;3.43;2.80;;;8.90;99.90;;;;;;5065981;23;20261;-75
2022/09/23 06:58:39;;;;;;;4.13;3.23;;;8.80;99.90;;;;;;5064330;23;20166;-75
2022/09/23 07:00:40;;;;;;;4.67;3.00;;;8.80;99.90;;;;;;5040496;23;20531;-75
2022/09/23 07:02:41;;;;;;;3.63;3.27;;;8.90;99.90;;;;;;5044167;23;20577;-75
2022/09/23 07:04:41;;;;;;;4.17;3.47;;;9.00;99.90;;;;;;5067073;23;20171;-75
2022/09/23 07:06:42;;;;;;;6.03;3.70;;;9.00;99.90;;;;;;5040180;23;20170;-75
2022/09/23 07:08:45;;;;;;;3.80;3.00;;;8.90;99.90;;;;;;5066168;23;20193;-75
2022/09/23 07:10:53;;;;;;;4.70;2.80;;;8.90;99.90;;;;;;5065546;23;20165;-75
2022/09/23 07:12:54;;;;;;;4.00;2.63;;;9.00;99.90;;;;;;5064533;23;20189;-75
2022/09/23 07:14:56;;;;;;;13.03;6.87;;;9.10;99.90;;;;;;5066064;23;20338;-74
2022/09/23 07:16:58;;;;;;;17.03;8.37;;;9.30;99.90;;;;;;5066312;23;20265;-75
2022/09/23 07:18:59;;;;;;;18.83;8.70;;;9.50;99.90;;;;;;5065961;23;20162;-75
2022/09/23 07:21:08;;;;;;;32.07;13.50;;;9.50;99.90;;;;;;5065195;23;20190;-74
2022/09/23 07:23:08;;;;;;;17.17;8.57;;;9.60;99.90;;;;;;5040205;23;20173;-75
2022/09/23 07:25:10;;;;;;;17.83;7.10;;;9.50;99.90;;;;;;5065991;23;20661;-74
2022/09/23 07:27:13;;;;;;;6.80;3.93;;;9.60;99.90;;;;;;5040057;23;20174;-75
2022/09/23 07:29:13;;;;;;;4.57;2.73;;;9.70;99.90;;;;;;5066057;23;20176;-75
2022/09/23 07:31:16;;;;;;;2.97;2.20;;;9.60;99.90;;;;;;5064957;23;20166;-74
2022/09/23 07:33:17;;;;;;;2.37;2.10;;;9.80;99.90;;;;;;5029845;23;20274;-75
2022/09/23 07:35:18;;;;;;;3.27;2.40;;;9.90;99.90;;;;;;5041501;23;20166;-75
2022/09/23 07:37:18;;;;;;;5.13;3.47;;;10.20;99.90;;;;;;5041388;23;20193;-75
2022/09/23 07:39:19;;;;;;;8.13;3.97;;;10.20;99.90;;;;;;5016245;23;20175;-75
2022/09/23 07:41:19;;;;;;;7.73;4.53;;;10.20;99.60;;;;;;5040604;23;20175;-75
2022/09/23 07:43:20;;;;;;;5.37;4.17;;;10.30;99.80;;;;;;5041739;23;20310;-75
2022/09/23 07:45:22;;;;;;;6.90;3.23;;;10.40;99.30;;;;;;5041873;23;20170;-75
2022/09/23 07:47:22;;;;;;;4.47;3.47;;;10.40;99.70;;;;;;5041456;23;20171;-75
2022/09/23 07:49:24;;;;;;;6.43;4.13;;;10.40;99.90;;;;;;5042014;23;20246;-75
2022/09/23 07:51:31;;;;;;;8.17;4.17;;;10.60;99.50;;;;;;5040729;23;20194;-72
2022/09/23 07:53:32;;;;;;;6.13;3.93;;;10.70;99.60;;;;;;5041909;23;20154;-72
2022/09/23 07:55:33;;;;;;;7.40;4.73;;;10.70;98.90;;;;;;5033989;23;20584;-71
2022/09/23 07:57:34;;;;;;;8.57;4.77;;;10.70;98.70;;;;;;5040731;23;20217;-71
2022/09/23 07:59:34;;;;;;;13.03;5.33;;;10.60;99.40;;;;;;5042704;23;20544;-77
2022/09/23 08:01:37;;;;;;;8.07;5.23;;;10.70;99.00;;;;;;5017631;23;20183;-77
2022/09/23 08:03:38;;;;;;;6.63;4.50;;;10.80;99.40;;;;;;5043226;23;20183;-77
2022/09/23 08:05:39;;;;;;;7.37;4.80;;;10.90;98.60;;;;;;5042735;23;20612;-77
2022/09/23 08:07:40;;;;;;;6.43;4.63;;;11.10;99.30;;;;;;5041989;23;20166;-77
2022/09/23 08:09:42;;;;;;;6.40;4.63;;;11.30;99.50;;;;;;5042778;23;20254;-77
2022/09/23 08:11:43;;;;;;;7.07;4.67;;;11.40;98.50;;;;;;5042355;23;20179;-77
2022/09/23 08:13:43;;;;;;;7.57;4.00;;;11.60;98.30;;;;;;5042863;23;20298;-77
2022/09/23 08:15:47;;;;;;;7.27;4.77;;;11.60;98.10;;;;;;5042901;23;20181;-77
2022/09/23 08:17:47;;;;;;;10.97;5.00;;;11.70;98.00;;;;;;5017407;23;20175;-77
2022/09/23 08:19:48;;;;;;;9.20;5.00;;;11.70;98.50;;;;;;5042819;23;20504;-77
2022/09/23 08:21:50;;;;;;;9.70;5.67;;;11.90;97.90;;;;;;5042182;23;20194;-77
2022/09/23 08:23:51;;;;;;;7.73;4.20;;;12.20;96.90;;;;;;5017350;23;20172;-77
2022/09/23 08:26:00;;;;;;;9.80;5.40;;;12.20;96.30;;;;;;5042762;23;20524;-78
2022/09/23 08:28:01;;;;;;;7.43;4.73;;;12.50;96.60;;;;;;5042867;23;20244;-78
2022/09/23 08:30:01;;;;;;;8.27;4.67;;;12.60;95.20;;;;;;5042792;23;20159;-78
2022/09/23 08:32:02;;;;;;;8.77;3.80;;;12.80;95.20;;;;;;5042276;23;20183;-76
2022/09/23 08:34:03;;;;;;;4.77;2.80;;;13.00;94.20;;;;;;5062387;23;20178;-77
2022/09/23 08:36:03;;;;;;;5.50;2.63;;;13.10;92.10;;;;;;5066624;23;20182;-77
2022/09/23 08:38:05;;;;;;;3.70;2.17;;;13.50;84.90;;;;;;5041093;23;20245;-76
2022/09/23 08:40:06;;;;;;;3.07;2.10;;;13.70;81.30;;;;;;5066879;23;20487;-77
2022/09/23 08:42:26;;;;;;;2.70;2.00;;;14.00;78.80;;;;;;5065980;23;20186;-77
2022/09/23 08:44:50;;;;;;;2.67;2.10;;;14.30;73.20;;;;;;5041239;23;20140;-77
2022/09/23 08:47:14;;;;;;;2.57;1.87;;;14.20;71.60;;;;;;5041224;23;20624;-77
2022/09/23 08:49:38;;;;;;;5.20;1.87;;;14.40;68.80;;;;;;5067155;23;20274;-77
2022/09/23 08:51:46;;;;;;;2.27;1.60;;;14.70;64.10;;;;;;5066030;23;20186;-77
2022/09/23 08:53:46;;;;;;;1.97;1.73;;;15.10;64.30;;;;;;5041460;23;20631;-76
2022/09/23 08:55:50;;;;;;;2.57;1.90;;;15.10;63.30;;;;;;5067232;23;20240;-76
2022/09/23 08:58:20;;;;;;;2.17;1.70;;;15.10;63.60;;;;;;5041154;23;20169;-76
2022/09/23 09:00:28;;;;;;;5.90;2.30;;;15.30;64.30;;;;;;5067691;23;20230;-76
2022/09/23 09:02:33;;;;;;;3.20;2.40;;;15.30;65.30;;;;;;5046173;23;20317;-77
2022/09/23 09:04:38;;;;;;;3.20;2.70;;;15.60;66.50;;;;;;5041892;23;20581;-76
2022/09/23 09:07:17;;;;;;;3.47;2.53;;;15.50;64.20;;;;;;5041298;23;20163;-76
2022/09/23 09:09:22;;;;;;;2.23;2.00;;;15.50;65.60;;;;;;5066919;23;20541;-76
2022/09/23 09:11:34;;;;;;;4.63;2.60;;;15.60;64.80;;;;;;5040346;23;20883;-76
2022/09/23 09:13:47;;;;;;;3.60;2.30;;;15.40;64.90;;;;;;5041497;23;20155;-77
2022/09/23 09:16:15;;;;;;;4.53;2.40;;;15.70;65.40;;;;;;5041421;23;20223;-77
2022/09/23 09:18:20;;;;;;;2.60;2.10;;;15.80;64.40;;;;;;5040725;23;20171;-77
2022/09/23 09:20:56;;;;;;;6.10;2.60;;;16.00;61.50;;;;;;5040318;23;20162;-75
2022/09/23 09:23:01;;;;;;;2.77;2.23;;;16.00;59.10;;;;;;5067225;23;20174;-76
2022/09/23 09:25:17;;;;;;;5.87;2.53;;;16.20;58.90;;;;;;5041376;23;20666;-76
2022/09/23 09:27:18;;;;;;;5.00;2.10;;;16.10;61.50;;;;;;5066621;23;20155;-75
2022/09/23 09:29:37;;;;;;;2.70;1.90;;;16.00;55.50;;;;;;5040662;23;20680;-76
2022/09/23 09:31:43;;;;;;;4.53;2.30;;;16.00;58.10;;;;;;5040070;23;20691;-76
2022/09/23 09:33:57;;;;;;;3.17;2.30;;;16.30;57.10;;;;;;5040391;23;20625;-75
2022/09/23 09:36:41;;;;;;;2.43;2.03;;;16.30;55.20;;;;;;5040585;23;20179;-75
2022/09/23 09:38:42;;;;;;;3.63;2.13;;;16.40;55.10;;;;;;5027303;23;20163;-75
2022/09/23 09:40:47;;;;;;;5.77;2.10;;;16.50;52.30;;;;;;5041748;23;20235;-75
2022/09/23 09:42:49;;;;;;;2.90;1.90;;;16.70;49.90;;;;;;5040563;23;20175;-75
2022/09/23 09:45:02;;;;;;;4.87;2.20;;;16.60;51.20;;;;;;5016424;23;20164;-75
2022/09/23 09:47:46;;;;;;;1.90;1.70;;;16.70;51.00;;;;;;5040617;23;20242;-75
2022/09/23 09:50:05;;;;;;;3.40;1.63;;;17.00;49.10;;;;;;5040432;23;20251;-76
2022/09/23 09:52:22;;;;;;;5.73;1.93;;;17.20;46.70;;;;;;5042044;23;20550;-76
2022/09/23 09:54:24;;;;;;;2.30;2.10;;;17.40;47.20;;;;;;5040750;23;20147;-76
2022/09/23 09:56:34;;;;;;;1.93;1.73;;;17.60;45.10;;;;;;5040597;23;20187;-76
2022/09/23 09:58:46;;;;;;;2.23;2.00;;;17.50;43.90;;;;;;5042206;23;20159;-75
2022/09/23 10:00:49;;;;;;;3.93;1.90;;;17.80;43.90;;;;;;5016344;23;20185;-76
2022/09/23 10:02:58;;;;;;;2.93;2.20;;;18.40;45.10;;;;;;5042398;23;20546;-75
2022/09/23 10:05:06;;;;;;;2.97;2.23;;;18.80;44.00;;;;;;5040944;23;20149;-76
2022/09/23 10:07:11;;;;;;;4.20;2.03;;;19.10;43.20;;;;;;5040716;23;20147;-76
2022/09/23 10:09:18;;;;;;;2.77;2.10;;;19.70;42.60;;;;;;5040745;23;20693;-76
2022/09/23 10:11:18;;;;;;;4.07;2.40;;;19.70;41.30;;;;;;5039813;23;20151;-76
2022/09/23 10:13:23;;;;;;;3.67;2.33;;;20.10;41.20;;;;;;5040654;23;20524;-76
2022/09/23 10:15:32;;;;;;;2.73;2.33;;;20.20;39.80;;;;;;5040796;23;20668;-76
2022/09/23 10:17:35;;;;;;;3.10;2.10;;;20.20;39.40;;;;;;5040469;23;20616;-75
2022/09/23 10:19:37;;;;;;;5.00;2.60;;;19.90;39.70;;;;;;5040301;23;20158;-75
2022/09/23 10:21:38;;;;;;;3.63;2.00;;;19.50;41.20;;;;;;5039822;23;20179;-76
2022/09/23 10:23:46;;;;;;;3.67;2.10;;;20.20;41.00;;;;;;5040664;23;20238;-75
2022/09/23 10:26:05;;;;;;;3.13;1.83;;;20.80;37.80;;;;;;5041003;23;20147;-76
2022/09/23 10:28:45;;;;;;;2.93;2.20;;;21.00;37.70;;;;;;5040888;23;20142;-76
2022/09/23 10:31:04;;;;;;;2.23;2.00;;;20.90;39.10;;;;;;5040115;23;20771;-75
2022/09/23 10:33:26;;;;;;;3.17;2.17;;;21.80;36.90;;;;;;5040369;23;20171;-75
2022/09/23 10:35:28;;;;;;;2.67;2.23;;;21.90;35.30;;;;;;5040386;23;20218;-74
2022/09/23 10:37:49;;;;;;;3.33;2.20;;;21.60;37.20;;;;;;5040311;23;20321;-75
2022/09/23 10:47:56;;;;;;;2.87;2.00;;;22.60;33.50;;;;;;5040880;23;20158;-74
2022/09/23 10:50:02;;;;;;;3.53;2.03;;;21.90;34.50;;;;;;5040118;23;20222;-74
2022/09/23 10:52:21;;;;;;;2.23;1.97;;;22.50;33.60;;;;;;5039549;23;20536;-74
2022/09/23 10:54:47;;;;;;;3.50;2.63;;;22.80;33.80;;;;;;5042001;23;20159;-74
2022/09/23 10:56:54;;;;;;;3.57;2.10;;;22.80;34.10;;;;;;5041920;23;20182;-75
2022/09/23 10:59:19;;;;;;;4.33;2.13;;;23.50;32.40;;;;;;5016762;23;20155;-74
2022/09/23 11:01:41;;;;;;;2.20;2.00;;;22.70;33.30;;;;;;5041252;23;20147;-73
2022/09/23 11:03:51;;;;;;;4.57;2.00;;;22.00;33.70;;;;;;5042314;23;20352;-74
2022/09/23 11:06:38;;;;;;;2.30;2.10;;;22.90;35.30;;;;;;5040336;23;20159;-74
2022/09/23 11:09:27;;;;;;;3.47;1.80;;;23.40;31.80;;;;;;5015693;23;20254;-74
2022/09/23 11:11:43;;;;;;;2.57;1.90;;;24.00;31.30;;;;;;5041350;23;20258;-74
2022/09/23 11:14:05;;;;;;;3.37;1.97;;;24.00;30.90;;;;;;5042328;23;20147;-74
2022/09/23 11:16:26;;;;;;;3.23;2.30;;;25.10;29.30;;;;;;5042226;23;20194;-75